Time;durP1;ratioP1;P1;durP2;ratioP2;P2;SDS_P1;SDS_P2;PMS_P1;PMS_P2;Temp;Humidity;BMP_temperature;BMP_pressure;BME280_temperature;BME280_humidity;BME280_pressure;Samples;Min_cycle;Max_cycle;Signal;HPM_P1;HPM_P2
2023/03/09 00:00:11;;;;;;;26.90;13.88;;;;;;;-0.53;100.00;99000.50;5089325;28;20368;-71
2023/03/09 00:02:37;;;;;;;30.10;15.27;;;;;;;-0.52;100.00;99008.19;5089673;28;20562;-71
2023/03/09 00:05:03;;;;;;;29.85;15.60;;;;;;;-0.55;100.00;98989.38;5089906;28;20031;-72
2023/03/09 00:07:30;;;;;;;29.17;12.50;;;;;;;-0.52;100.00;98991.66;5089485;28;20031;-71
2023/03/09 00:09:57;;;;;;;26.63;14.32;;;;;;;-0.48;100.00;99003.41;5089451;28;20426;-71
2023/03/09 00:12:23;;;;;;;25.33;11.60;;;;;;;-0.45;100.00;98997.81;5089643;28;20032;-71
2023/03/09 00:14:52;;;;;;;26.95;14.13;;;;;;;-0.48;100.00;98977.22;5089215;28;20073;-71
2023/03/09 00:17:18;;;;;;;30.33;15.52;;;;;;;-0.47;100.00;98973.63;5089296;28;20028;-71
2023/03/09 00:19:43;;;;;;;28.17;14.13;;;;;;;-0.50;100.00;98980.03;5089328;28;20536;-71
2023/03/09 00:22:09;;;;;;;26.23;12.80;;;;;;;-0.53;100.00;98975.13;5087979;28;20036;-72
2023/03/09 00:24:34;;;;;;;26.30;12.23;;;;;;;-0.49;100.00;98994.75;5089311;28;20375;-71
2023/03/09 00:27:01;;;;;;;28.00;13.93;;;;;;;-0.48;100.00;98985.09;5089283;28;20383;-71
2023/03/09 00:29:28;;;;;;;26.50;12.63;;;;;;;-0.46;100.00;98989.16;5089079;28;20066;-71
2023/03/09 00:31:54;;;;;;;27.85;13.00;;;;;;;-0.47;100.00;98982.31;5089188;28;20098;-71
2023/03/09 00:34:20;;;;;;;25.10;13.00;;;;;;;-0.45;100.00;98995.22;5089098;28;20035;-71
2023/03/09 00:36:45;;;;;;;26.83;12.52;;;;;;;-0.46;100.00;99012.72;5089632;28;20032;-72
2023/03/09 00:39:13;;;;;;;25.10;12.48;;;;;;;-0.43;100.00;99023.84;5089063;28;20024;-72
2023/03/09 00:41:39;;;;;;;25.05;10.73;;;;;;;-0.45;100.00;99013.53;5089068;28;20028;-71
2023/03/09 00:44:05;;;;;;;23.50;10.52;;;;;;;-0.46;100.00;99020.59;5089033;28;20124;-72
2023/03/09 00:46:32;;;;;;;25.65;11.68;;;;;;;-0.42;100.00;99028.09;5088961;28;20111;-71
2023/03/09 00:48:58;;;;;;;27.13;13.20;;;;;;;-0.43;100.00;99036.94;5088925;28;20032;-72
2023/03/09 00:51:24;;;;;;;24.02;12.98;;;;;;;-0.41;100.00;99041.03;5088661;28;20505;-71
2023/03/09 00:53:50;;;;;;;26.42;12.73;;;;;;;-0.42;100.00;99042.00;5088917;28;20024;-71
2023/03/09 00:56:19;;;;;;;25.73;12.93;;;;;;;-0.42;100.00;99035.94;5088997;28;20034;-71
2023/03/09 00:58:44;;;;;;;24.70;11.98;;;;;;;-0.42;100.00;99044.63;5092635;28;20108;-72
2023/03/09 01:01:13;;;;;;;26.33;12.75;;;;;;;-0.40;100.00;99047.06;5093055;28;20131;-72
2023/03/09 01:03:39;;;;;;;21.35;10.57;;;;;;;-0.41;100.00;99042.84;5073974;28;20028;-71
2023/03/09 01:06:05;;;;;;;25.60;12.95;;;;;;;-0.41;100.00;99043.66;5073640;28;20025;-71
2023/03/09 01:08:32;;;;;;;25.80;12.57;;;;;;;-0.45;100.00;99053.66;5092625;28;20036;-71
2023/03/09 01:10:57;;;;;;;26.30;13.77;;;;;;;-0.41;100.00;99069.84;5092780;28;20032;-71
2023/03/09 01:13:23;;;;;;;28.10;12.70;;;;;;;-0.39;100.00;99067.88;5092817;28;20479;-71
2023/03/09 01:15:48;;;;;;;30.60;12.98;;;;;;;-0.39;100.00;99072.25;5092784;28;20028;-71
2023/03/09 01:18:14;;;;;;;23.48;10.95;;;;;;;-0.37;100.00;99075.53;5092870;28;20028;-71
2023/03/09 01:20:39;;;;;;;26.85;12.25;;;;;;;-0.38;100.00;99087.00;5092704;28;20048;-71
2023/03/09 01:23:05;;;;;;;26.95;13.70;;;;;;;-0.43;100.00;99091.94;5092718;28;20115;-71
2023/03/09 01:25:30;;;;;;;25.83;13.60;;;;;;;-0.38;100.00;99094.88;5091429;28;20032;-71
2023/03/09 01:27:55;;;;;;;30.05;12.85;;;;;;;-0.37;100.00;99091.25;5092606;28;20078;-71
2023/03/09 01:30:21;;;;;;;31.42;14.20;;;;;;;-0.35;100.00;99099.75;5092730;28;20456;-71
2023/03/09 01:32:46;;;;;;;28.00;13.68;;;;;;;-0.35;100.00;99100.56;5092565;28;20068;-71
2023/03/09 01:35:12;;;;;;;32.15;15.93;;;;;;;-0.34;100.00;99093.53;5092495;28;20017;-71
2023/03/09 01:37:37;;;;;;;25.27;11.25;;;;;;;-0.32;100.00;99091.56;5092495;28;20024;-71
2023/03/09 01:40:06;;;;;;;27.23;13.73;;;;;;;-0.33;100.00;99092.56;5092350;28;20094;-71
2023/03/09 01:42:32;;;;;;;31.55;14.60;;;;;;;-0.32;100.00;99107.28;5092258;28;20031;-71
2023/03/09 01:45:30;;;;;;;33.58;17.17;;;;;;;-0.35;100.00;99111.06;5092032;28;20036;-71
2023/03/09 01:48:00;;;;;;;29.35;13.05;;;;;;;-0.36;100.00;99109.44;5092019;28;20043;-71
2023/03/09 01:50:29;;;;;;;30.77;13.35;;;;;;;-0.33;100.00;99109.09;5092177;28;20036;-71
2023/03/09 01:52:58;;;;;;;30.10;15.80;;;;;;;-0.28;100.00;99122.50;5092136;28;20111;-71
2023/03/09 01:55:30;;;;;;;32.30;16.00;;;;;;;-0.26;100.00;99128.38;5092039;28;20027;-71
2023/03/09 01:58:04;;;;;;;38.47;15.45;;;;;;;-0.26;100.00;99136.25;5091932;28;20031;-71
2023/03/09 02:00:30;;;;;;;33.10;14.90;;;;;;;-0.25;100.00;99135.25;5091695;28;20300;-71
2023/03/09 02:02:59;;;;;;;28.50;15.32;;;;;;;-0.22;100.00;99141.94;5091900;28;20028;-71
2023/03/09 02:05:40;;;;;;;27.88;14.70;;;;;;;-0.24;100.00;99152.63;5091893;28;20024;-71
2023/03/09 02:08:07;;;;;;;29.33;16.45;;;;;;;-0.22;100.00;99157.66;5091302;28;20055;-71
2023/03/09 02:10:36;;;;;;;29.98;14.63;;;;;;;-0.23;100.00;99148.19;5091403;28;20032;-71
2023/03/09 02:13:09;;;;;;;33.05;17.63;;;;;;;-0.27;100.00;99144.25;5091739;28;20097;-71
2023/03/09 02:15:35;;;;;;;29.90;13.63;;;;;;;-0.26;100.00;99151.97;5091796;28;20036;-71
2023/03/09 02:18:01;;;;;;;31.73;14.77;;;;;;;-0.26;100.00;99154.59;5091635;28;20046;-71
2023/03/09 02:20:54;;;;;;;29.85;13.32;;;;;;;-0.25;100.00;99153.59;5091598;28;20483;-71
2023/03/09 02:23:45;;;;;;;25.83;15.73;;;;;;;-0.23;100.00;99159.47;5091555;28;20119;-71
2023/03/09 02:26:30;;;;;;;31.63;15.80;;;;;;;-0.21;100.00;99159.28;5069910;28;20075;-71
2023/03/09 02:28:56;;;;;;;31.25;14.32;;;;;;;-0.21;100.00;99164.53;5091446;28;20109;-71
2023/03/09 02:31:21;;;;;;;30.42;16.50;;;;;;;-0.17;100.00;99171.09;5091217;28;20459;-71
2023/03/09 02:33:46;;;;;;;31.73;13.93;;;;;;;-0.20;100.00;99166.19;5091382;28;20032;-71
2023/03/09 02:36:12;;;;;;;29.77;14.65;;;;;;;-0.28;100.00;99158.34;5090104;28;20034;-71
2023/03/09 02:38:37;;;;;;;29.52;15.57;;;;;;;-0.13;100.00;99193.34;5091403;28;20118;-71
2023/03/09 02:41:06;;;;;;;31.40;13.65;;;;;;;-0.11;100.00;99195.78;5091163;28;20055;-71
2023/03/09 02:43:42;;;;;;;30.13;14.02;;;;;;;-0.12;100.00;99194.97;5091759;28;20433;-71
2023/03/09 02:46:07;;;;;;;34.03;16.23;;;;;;;-0.18;100.00;99176.47;5091135;28;20032;-71
2023/03/09 02:48:33;;;;;;;32.92;15.93;;;;;;;-0.15;100.00;99178.78;5091070;28;20083;-71
2023/03/09 02:50:58;;;;;;;37.70;18.73;;;;;;;-0.19;100.00;99178.28;5090994;28;20039;-71
2023/03/09 02:53:24;;;;;;;33.40;15.85;;;;;;;-0.22;100.00;99179.44;5090894;28;20119;-71
2023/03/09 02:55:49;;;;;;;32.85;15.15;;;;;;;-0.19;100.00;99191.38;5090795;28;20032;-71
2023/03/09 02:58:15;;;;;;;35.75;17.88;;;;;;;-0.20;100.00;99192.38;5090954;28;20032;-71
2023/03/09 03:00:40;;;;;;;32.90;17.15;;;;;;;-0.24;100.00;99186.66;5090849;28;20128;-71
2023/03/09 03:03:06;;;;;;;36.35;18.08;;;;;;;-0.22;100.00;99192.53;5090824;28;20024;-71
2023/03/09 03:05:31;;;;;;;32.85;16.50;;;;;;;-0.21;100.00;99190.72;5090797;28;20060;-71
2023/03/09 03:07:56;;;;;;;31.10;16.15;;;;;;;-0.22;100.00;99197.78;5090747;28;20020;-71
2023/03/09 03:10:22;;;;;;;33.78;17.35;;;;;;;-0.18;100.00;99205.28;5090622;28;20180;-71
2023/03/09 03:12:47;;;;;;;36.47;18.48;;;;;;;-0.17;100.00;99206.94;5091027;28;20039;-71
2023/03/09 03:15:12;;;;;;;33.83;19.90;;;;;;;-0.18;100.00;99207.91;5090720;28;20467;-71
2023/03/09 03:17:38;;;;;;;37.50;18.27;;;;;;;-0.17;100.00;99193.84;5090505;28;20039;-71
2023/03/09 03:20:05;;;;;;;36.17;19.85;;;;;;;-0.18;100.00;99198.28;5089388;28;20066;-71
2023/03/09 03:22:30;;;;;;;36.70;19.08;;;;;;;-0.17;100.00;99206.94;5090212;28;20169;-71
2023/03/09 03:24:56;;;;;;;35.70;19.25;;;;;;;-0.20;100.00;99208.09;5090434;28;20475;-71
2023/03/09 03:27:21;;;;;;;35.75;16.60;;;;;;;-0.24;100.00;99219.88;5090272;28;20065;-71
2023/03/09 03:29:50;;;;;;;34.53;19.70;;;;;;;-0.22;100.00;99229.22;5090204;28;20020;-71
2023/03/09 03:32:15;;;;;;;41.35;18.60;;;;;;;-0.22;100.00;99221.34;5090359;28;20043;-71
2023/03/09 03:34:41;;;;;;;49.78;17.83;;;;;;;-0.22;100.00;99231.03;5090140;28;20157;-71
2023/03/09 03:37:06;;;;;;;34.92;20.08;;;;;;;-0.23;100.00;99232.03;5090045;28;20560;-71
2023/03/09 03:39:31;;;;;;;35.90;18.08;;;;;;;-0.26;100.00;99240.22;5089998;28;20024;-71
2023/03/09 03:41:57;;;;;;;38.35;19.75;;;;;;;-0.22;100.00;99252.78;5090081;28;20063;-71
2023/03/09 03:44:22;;;;;;;38.47;19.25;;;;;;;-0.23;100.00;99251.16;5089724;28;20032;-71
2023/03/09 03:46:47;;;;;;;40.15;18.30;;;;;;;-0.24;100.00;99249.53;5089825;28;20099;-71
2023/03/09 03:49:13;;;;;;;35.58;18.52;;;;;;;-0.27;100.00;99246.41;5089795;28;20044;-71
2023/03/09 03:51:38;;;;;;;40.15;19.40;;;;;;;-0.27;100.00;99252.47;5089648;28;20041;-71
2023/03/09 03:54:03;;;;;;;44.72;21.80;;;;;;;-0.27;100.00;99255.09;5089844;28;20020;-71
2023/03/09 03:56:29;;;;;;;41.65;22.35;;;;;;;-0.26;100.00;99279.50;5082578;28;20483;-71
2023/03/09 03:58:54;;;;;;;40.67;19.88;;;;;;;-0.24;100.00;99278.38;5070332;28;20090;-70
2023/03/09 04:01:19;;;;;;;43.05;22.25;;;;;;;-0.24;100.00;99273.13;5070096;28;20106;-71
2023/03/09 04:03:45;;;;;;;37.20;19.02;;;;;;;-0.24;100.00;99278.38;5089723;28;20032;-71
2023/03/09 04:06:10;;;;;;;40.72;22.58;;;;;;;-0.24;100.00;99282.75;5089882;28;20440;-71
2023/03/09 04:08:36;;;;;;;36.15;19.55;;;;;;;-0.25;100.00;99284.56;5089447;28;20391;-71
2023/03/09 04:11:08;;;;;;;39.78;19.50;;;;;;;-0.22;100.00;99286.03;5089308;28;20081;-71
2023/03/09 04:13:33;;;;;;;42.25;21.50;;;;;;;-0.20;100.00;99298.97;5089395;28;20097;-71
2023/03/09 04:15:59;;;;;;;41.72;23.08;;;;;;;-0.20;100.00;99305.03;5089697;28;20039;-71
2023/03/09 04:18:24;;;;;;;43.90;21.77;;;;;;;-0.20;100.00;99294.56;5089279;28;20475;-71
2023/03/09 04:20:49;;;;;;;46.63;20.08;;;;;;;-0.22;100.00;99299.13;5089272;28;20056;-71
2023/03/09 04:23:15;;;;;;;43.58;23.70;;;;;;;-0.30;100.00;99299.16;5087950;28;20378;-71
2023/03/09 04:25:40;;;;;;;47.88;24.05;;;;;;;-0.19;100.00;99321.56;5089238;28;20039;-71
2023/03/09 04:28:05;;;;;;;44.92;24.33;;;;;;;-0.24;100.00;99316.81;5089209;28;20028;-71
2023/03/09 04:30:31;;;;;;;49.47;26.85;;;;;;;-0.24;100.00;99307.19;5088955;28;20031;-71
2023/03/09 04:32:56;;;;;;;42.80;20.90;;;;;;;-0.21;100.00;99313.84;5087807;28;20519;-71
2023/03/09 04:35:22;;;;;;;48.53;26.40;;;;;;;-0.28;100.00;99329.44;5089399;28;20064;-71
2023/03/09 04:37:47;;;;;;;51.17;25.88;;;;;;;-0.28;100.00;99315.53;5089193;28;20069;-71
2023/03/09 04:40:14;;;;;;;47.58;25.70;;;;;;;-0.28;100.00;99315.53;5089180;28;20448;-71
2023/03/09 04:42:39;;;;;;;47.17;24.77;;;;;;;-0.29;100.00;99314.72;5089073;28;20042;-71
2023/03/09 04:45:06;;;;;;;48.88;25.30;;;;;;;-0.27;100.00;99325.00;5089214;28;20024;-71
2023/03/09 04:47:31;;;;;;;51.65;26.02;;;;;;;-0.27;100.00;99325.81;5089111;28;20028;-71
2023/03/09 04:49:56;;;;;;;52.20;25.77;;;;;;;-0.29;100.00;99330.44;5088850;28;20032;-71
2023/03/09 04:52:23;;;;;;;55.80;24.98;;;;;;;-0.30;100.00;99318.28;5089074;28;20036;-71
2023/03/09 04:54:49;;;;;;;50.28;25.48;;;;;;;-0.27;100.00;99344.16;5088916;28;20032;-71
2023/03/09 04:57:14;;;;;;;51.80;26.88;;;;;;;-0.27;100.00;99341.53;5088901;28;20024;-71
2023/03/09 04:59:40;;;;;;;42.78;22.20;;;;;;;-0.27;100.00;99352.00;5088865;28;20043;-71
2023/03/09 05:02:05;;;;;;;53.53;26.35;;;;;;;-0.26;100.00;99366.78;5088961;28;20028;-71
2023/03/09 05:04:31;;;;;;;44.50;24.90;;;;;;;-0.25;100.00;99376.25;5088906;28;20035;-71
2023/03/09 05:06:57;;;;;;;50.85;27.10;;;;;;;-0.26;100.00;99372.00;5088751;28;20033;-71
2023/03/09 05:09:22;;;;;;;50.80;25.38;;;;;;;-0.24;100.00;99370.06;5089042;28;20036;-71
2023/03/09 05:11:51;;;;;;;47.03;23.10;;;;;;;-0.24;100.00;99367.44;5088666;28;20123;-71
2023/03/09 05:14:20;;;;;;;46.10;23.77;;;;;;;-0.24;100.00;99369.22;5088648;28;20127;-71
2023/03/09 05:16:50;;;;;;;43.97;22.85;;;;;;;-0.25;100.00;99357.09;5088836;28;20035;-71
2023/03/09 05:19:16;;;;;;;46.60;23.90;;;;;;;-0.26;100.00;99379.06;5088793;28;20058;-71
2023/03/09 05:21:41;;;;;;;42.35;24.98;;;;;;;-0.25;100.00;99384.13;5088700;28;20028;-71
2023/03/09 05:24:07;;;;;;;46.15;24.25;;;;;;;-0.26;100.00;99382.50;5088552;28;20106;-71
2023/03/09 05:26:32;;;;;;;47.97;25.15;;;;;;;-0.26;100.00;99392.16;5088581;28;20115;-71
2023/03/09 05:28:57;;;;;;;45.47;23.77;;;;;;;-0.23;100.00;99390.00;5087394;28;20098;-71
2023/03/09 05:31:23;;;;;;;49.03;21.83;;;;;;;-0.23;100.00;99387.41;5088615;28;20031;-71
2023/03/09 05:33:48;;;;;;;52.13;24.45;;;;;;;-0.22;100.00;99391.63;5088717;28;20475;-71
2023/03/09 05:36:17;;;;;;;43.10;23.75;;;;;;;-0.25;100.00;99389.34;5088662;28;20544;-71
2023/03/09 05:38:43;;;;;;;47.05;24.95;;;;;;;-0.26;100.00;99386.91;5088604;28;20032;-71
2023/03/09 05:41:08;;;;;;;48.92;24.00;;;;;;;-0.26;100.00;99376.44;5088509;28;20039;-71
2023/03/09 05:43:35;;;;;;;45.20;23.20;;;;;;;-0.25;100.00;99383.31;5090031;28;20036;-71
2023/03/09 05:46:02;;;;;;;50.08;24.92;;;;;;;-0.30;100.00;99386.41;5092202;28;20073;-71
2023/03/09 05:48:28;;;;;;;46.25;22.33;;;;;;;-0.34;100.00;99366.78;5092195;28;20028;-71
2023/03/09 05:50:53;;;;;;;49.63;27.50;;;;;;;-0.23;100.00;99374.28;5092295;28;20045;-71
2023/03/09 05:53:18;;;;;;;45.78;25.42;;;;;;;-0.27;100.00;99372.16;5092092;28;20387;-71
2023/03/09 05:55:44;;;;;;;45.90;21.27;;;;;;;-0.23;100.00;99392.63;5091961;28;20043;-71
2023/03/09 05:58:09;;;;;;;43.35;21.45;;;;;;;-0.25;100.00;99380.69;5090542;28;20039;-71
2023/03/09 06:00:34;;;;;;;45.95;23.55;;;;;;;-0.19;100.00;99395.75;5091668;28;20048;-71
2023/03/09 06:03:00;;;;;;;50.22;24.40;;;;;;;-0.19;100.00;99394.91;5091874;28;20119;-71
2023/03/09 06:05:25;;;;;;;44.30;23.23;;;;;;;-0.18;100.00;99381.69;5091859;28;20030;-71
2023/03/09 06:07:51;;;;;;;48.28;23.30;;;;;;;-0.22;100.00;99393.44;5091724;28;20068;-71
2023/03/09 06:10:17;;;;;;;42.72;22.42;;;;;;;-0.11;100.00;99424.56;5091708;28;20043;-71
2023/03/09 06:12:42;;;;;;;47.30;24.40;;;;;;;-0.08;100.00;99432.13;5091653;28;20058;-71
2023/03/09 06:15:08;;;;;;;43.97;24.52;;;;;;;-0.16;100.00;99412.94;5091383;28;20036;-71
2023/03/09 06:17:33;;;;;;;44.85;21.25;;;;;;;-0.04;100.00;99422.94;5091392;28;20036;-71
2023/03/09 06:19:59;;;;;;;41.67;21.90;;;;;;;-0.02;100.00;99418.34;5091532;28;20032;-70
2023/03/09 06:22:24;;;;;;;42.63;21.17;;;;;;;0.04;100.00;99429.16;5071914;28;20025;-71
2023/03/09 06:24:49;;;;;;;43.28;24.02;;;;;;;0.05;100.00;99426.38;5071957;28;20142;-71
2023/03/09 06:27:15;;;;;;;43.78;22.60;;;;;;;0.08;100.00;99431.31;5072053;28;20082;-71
2023/03/09 06:29:40;;;;;;;43.08;23.55;;;;;;;0.09;100.00;99439.97;5072036;28;20035;-71
2023/03/09 06:32:06;;;;;;;54.75;25.80;;;;;;;0.11;100.00;99449.31;5072325;28;20533;-71
2023/03/09 06:34:31;;;;;;;42.30;20.15;;;;;;;0.14;100.00;99456.84;5071856;28;20042;-67
2023/03/09 06:36:57;;;;;;;45.80;22.35;;;;;;;0.17;100.00;99463.56;5071862;28;20032;-66
2023/03/09 06:39:22;;;;;;;44.47;22.15;;;;;;;0.17;100.00;99464.38;5071735;28;20112;-66
2023/03/09 06:41:47;;;;;;;48.47;21.70;;;;;;;0.18;100.00;99478.31;5071792;28;20013;-67
2023/03/09 06:44:13;;;;;;;40.97;20.92;;;;;;;0.17;100.00;99477.50;5071688;28;20056;-66
2023/03/09 06:46:38;;;;;;;41.53;20.20;;;;;;;0.22;100.00;99479.63;5071580;28;20364;-66
2023/03/09 06:49:04;;;;;;;41.13;21.10;;;;;;;0.18;100.00;99470.44;5071519;28;20033;-67
2023/03/09 06:51:29;;;;;;;39.83;21.13;;;;;;;0.17;100.00;99477.50;5071341;28;20036;-66
2023/03/09 06:53:55;;;;;;;41.38;23.00;;;;;;;0.13;100.00;99476.19;5071184;28;20036;-66
2023/03/09 06:56:20;;;;;;;44.85;22.85;;;;;;;0.09;100.00;99469.63;5090268;28;20028;-66
2023/03/09 06:58:45;;;;;;;42.90;21.58;;;;;;;0.11;100.00;99472.09;5071436;28;20551;-67
2023/03/09 07:01:14;;;;;;;41.83;22.55;;;;;;;0.10;100.00;99486.16;5070892;28;20067;-66
2023/03/09 07:03:41;;;;;;;36.75;19.65;;;;;;;0.11;100.00;99506.16;5071204;28;20684;-67
2023/03/09 07:06:06;;;;;;;46.28;21.75;;;;;;;0.14;100.00;99522.38;5071272;28;20036;-67
2023/03/09 07:08:32;;;;;;;42.28;21.35;;;;;;;0.17;100.00;99529.91;5071104;28;20111;-66
2023/03/09 07:10:58;;;;;;;42.25;22.13;;;;;;;0.20;100.00;99537.47;5071122;28;20036;-67
2023/03/09 07:13:24;;;;;;;43.47;22.33;;;;;;;0.18;100.00;99535.97;5090297;28;20042;-66
2023/03/09 07:15:49;;;;;;;41.08;19.90;;;;;;;0.16;100.00;99532.72;5090220;28;20027;-66
2023/03/09 07:18:14;;;;;;;41.33;21.02;;;;;;;0.12;100.00;99534.81;5090379;28;20032;-66
2023/03/09 07:20:41;;;;;;;44.22;23.63;;;;;;;0.18;100.00;99549.94;5088851;28;20032;-67
2023/03/09 07:23:08;;;;;;;45.15;24.58;;;;;;;0.19;100.00;99553.38;5089985;28;20027;-67
2023/03/09 07:25:34;;;;;;;43.13;23.05;;;;;;;0.23;100.00;99573.03;5090407;28;20024;-66
2023/03/09 07:28:01;;;;;;;44.88;21.40;;;;;;;0.26;100.00;99582.38;5090231;28;20103;-66
2023/03/09 07:30:28;;;;;;;41.33;19.58;;;;;;;0.26;100.00;99585.81;5088545;28;20020;-67
2023/03/09 07:32:53;;;;;;;48.70;23.67;;;;;;;0.30;100.00;99594.19;5076490;28;20036;-67
2023/03/09 07:35:19;;;;;;;44.85;22.30;;;;;;;0.31;100.00;99580.91;5070434;28;20663;-66
2023/03/09 07:37:45;;;;;;;42.55;18.98;;;;;;;0.30;100.00;99581.88;5070230;28;20441;-66
2023/03/09 07:40:11;;;;;;;37.63;18.42;;;;;;;0.29;100.00;99580.25;5070247;28;20111;-66
2023/03/09 07:42:36;;;;;;;41.33;19.05;;;;;;;0.30;100.00;99587.13;5086165;28;20135;-67
2023/03/09 07:45:02;;;;;;;43.38;18.83;;;;;;;0.31;100.00;99596.63;5087291;28;20040;-66
2023/03/09 07:47:28;;;;;;;44.08;17.52;;;;;;;0.30;100.00;99588.94;5089320;28;20039;-65
2023/03/09 07:49:53;;;;;;;43.83;20.58;;;;;;;0.33;100.00;99602.53;5089421;28;20027;-67
2023/03/09 07:52:18;;;;;;;41.78;20.30;;;;;;;0.35;100.00;99600.59;5089203;28;20027;-72
2023/03/09 07:54:45;;;;;;;39.70;19.38;;;;;;;0.33;100.00;99584.19;5089591;28;20052;-70
2023/03/09 07:57:10;;;;;;;40.13;20.55;;;;;;;0.43;100.00;99599.78;5089518;28;20101;-70
2023/03/09 07:59:35;;;;;;;43.50;22.33;;;;;;;0.47;100.00;99590.59;5089448;28;20064;-71
2023/03/09 08:02:01;;;;;;;42.60;21.08;;;;;;;0.51;100.00;99598.97;5089202;28;20552;-71
2023/03/09 08:04:26;;;;;;;39.17;20.15;;;;;;;0.58;100.00;99598.16;5089299;28;20602;-71
2023/03/09 08:06:51;;;;;;;42.33;20.77;;;;;;;0.62;100.00;99615.19;5088771;28;20038;-70
2023/03/09 08:09:17;;;;;;;43.53;17.90;;;;;;;0.63;100.00;99610.78;5087783;28;20032;-71
2023/03/09 08:11:46;;;;;;;46.53;22.67;;;;;;;0.68;100.00;99618.16;5089321;28;20122;-71
2023/03/09 08:14:11;;;;;;;37.90;19.70;;;;;;;0.69;100.00;99625.06;5089089;28;20035;-71
2023/03/09 08:16:37;;;;;;;43.30;21.52;;;;;;;0.67;100.00;99614.72;5089320;28;20037;-71
2023/03/09 08:19:02;;;;;;;43.28;23.48;;;;;;;0.70;100.00;99619.63;5089334;28;20028;-71
2023/03/09 08:21:28;;;;;;;40.83;21.45;;;;;;;0.72;100.00;99627.34;5089021;28;20457;-71
2023/03/09 08:23:53;;;;;;;43.72;21.75;;;;;;;0.79;100.00;99639.66;5089276;28;20043;-71
2023/03/09 08:26:18;;;;;;;47.42;23.60;;;;;;;0.84;100.00;99640.00;5089092;28;20031;-71
2023/03/09 08:28:45;;;;;;;42.60;21.30;;;;;;;0.90;100.00;99645.56;5089103;28;20036;-71
2023/03/09 08:31:12;;;;;;;45.08;23.15;;;;;;;0.96;100.00;99653.59;5089049;28;20051;-71
2023/03/09 08:33:38;;;;;;;46.50;22.52;;;;;;;0.99;100.00;99644.56;5089261;28;20050;-71
2023/03/09 08:36:18;;;;;;;41.85;21.38;;;;;;;1.06;100.00;99654.25;5089200;28;20031;-71
2023/03/09 08:38:45;;;;;;;43.05;20.63;;;;;;;1.04;100.00;99663.28;5089267;28;20081;-71
2023/03/09 08:41:12;;;;;;;44.10;22.10;;;;;;;1.03;100.00;99657.22;5076041;28;20021;-74
2023/03/09 08:43:37;;;;;;;45.00;23.85;;;;;;;1.02;100.00;99662.63;5071991;28;20394;-71
2023/03/09 08:46:03;;;;;;;41.10;22.10;;;;;;;1.09;100.00;99668.84;5073344;28;20033;-72
2023/03/09 08:48:28;;;;;;;43.05;20.17;;;;;;;1.13;100.00;99679.84;5071695;28;20154;-73
2023/03/09 08:50:53;;;;;;;43.78;22.90;;;;;;;1.14;100.00;99679.69;5072240;28;20025;-70
2023/03/09 08:53:19;;;;;;;40.83;18.02;;;;;;;1.13;100.00;99672.81;5071618;28;20032;-72
2023/03/09 08:55:45;;;;;;;35.78;19.58;;;;;;;1.19;100.00;99673.94;5071637;28;20383;-70
2023/03/09 08:58:11;;;;;;;39.13;18.88;;;;;;;1.23;100.00;99676.09;5069212;28;20028;-70
2023/03/09 09:00:37;;;;;;;41.22;20.48;;;;;;;1.31;100.00;99686.59;5069839;28;20128;-70
2023/03/09 09:03:03;;;;;;;43.42;21.63;;;;;;;1.33;100.00;99673.28;5087823;28;20059;-70
2023/03/09 09:05:28;;;;;;;44.17;21.08;;;;;;;1.38;100.00;99662.28;5088993;28;20062;-70
2023/03/09 09:07:54;;;;;;;42.60;19.70;;;;;;;1.44;100.00;99674.72;5088834;28;20109;-70
2023/03/09 09:10:19;;;;;;;37.60;19.45;;;;;;;1.42;100.00;99664.41;5071844;28;20098;-70
2023/03/09 09:12:45;;;;;;;47.35;21.10;;;;;;;1.56;100.00;99686.53;5070598;28;20553;-70
2023/03/09 09:15:13;;;;;;;41.42;23.95;;;;;;;1.62;100.00;99701.63;5088987;28;20044;-70
2023/03/09 09:17:38;;;;;;;39.25;18.00;;;;;;;1.67;100.00;99709.03;5076005;28;20029;-68
2023/03/09 09:20:05;;;;;;;37.70;19.02;;;;;;;1.73;100.00;99709.19;5073872;28;20494;-70
2023/03/09 09:22:30;;;;;;;40.95;20.17;;;;;;;1.85;100.00;99719.34;5073356;28;20119;-71
2023/03/09 09:24:55;;;;;;;35.00;17.65;;;;;;;1.94;100.00;99728.84;5073352;28;20051;-71
2023/03/09 09:27:21;;;;;;;38.72;20.13;;;;;;;2.02;100.00;99736.72;5072913;28;20040;-71
2023/03/09 09:29:46;;;;;;;40.83;21.05;;;;;;;2.02;100.00;99736.72;5072830;28;20049;-70
2023/03/09 09:32:12;;;;;;;39.90;20.88;;;;;;;2.03;100.00;99740.97;5072880;28;20043;-70
2023/03/09 09:34:38;;;;;;;39.75;18.63;;;;;;;2.06;100.00;99726.69;5072854;28;20028;-70
2023/03/09 09:37:05;;;;;;;53.60;24.35;;;;;;;2.03;100.00;99717.31;5072912;28;20036;-70
2023/03/09 09:39:32;;;;;;;39.13;18.70;;;;;;;2.12;100.00;99713.69;5072725;28;20036;-70
2023/03/09 09:42:05;;;;;;;38.58;19.10;;;;;;;2.19;100.00;99698.84;5072895;28;20364;-70
2023/03/09 09:44:35;;;;;;;43.63;23.63;;;;;;;2.33;100.00;99699.94;5092284;28;20032;-70
2023/03/09 09:47:04;;;;;;;39.45;17.60;;;;;;;2.45;100.00;99717.97;5092319;28;20089;-70
2023/03/09 09:49:34;;;;;;;41.92;22.08;;;;;;;2.60;100.00;99708.38;5092024;28;21031;-71
2023/03/09 09:52:08;;;;;;;39.25;19.88;;;;;;;2.76;100.00;99724.06;5092018;28;20032;-70
2023/03/09 09:54:41;;;;;;;47.85;23.92;;;;;;;2.79;100.00;99709.72;5092184;28;20543;-70
2023/03/09 09:57:18;;;;;;;39.83;20.70;;;;;;;2.90;100.00;99719.03;5091929;28;20541;-70
2023/03/09 09:59:47;;;;;;;44.70;21.08;;;;;;;2.95;100.00;99737.75;5091793;28;20020;-69
2023/03/09 10:02:35;;;;;;;34.90;17.83;;;;;;;2.94;100.00;99747.47;5091781;28;20106;-72
2023/03/09 10:05:30;;;;;;;37.70;18.42;;;;;;;2.87;100.00;99738.63;5075645;28;20032;-69
2023/03/09 10:08:11;;;;;;;37.17;18.55;;;;;;;2.78;100.00;99739.69;5073448;28;20020;-71
2023/03/09 10:10:39;;;;;;;36.90;19.83;;;;;;;2.70;100.00;99751.09;5072524;28;20952;-71
2023/03/09 10:13:14;;;;;;;37.63;18.58;;;;;;;2.68;100.00;99752.25;5072478;28;20021;-71
2023/03/09 10:15:39;;;;;;;41.22;19.85;;;;;;;2.63;100.00;99748.31;5091984;28;20127;-71
2023/03/09 10:18:13;;;;;;;42.00;22.13;;;;;;;2.68;100.00;99747.78;5091735;28;20144;-71
2023/03/09 10:20:49;;;;;;;38.47;18.77;;;;;;;2.79;100.00;99738.69;5072377;28;20020;-71
2023/03/09 10:23:29;;;;;;;44.53;18.58;;;;;;;2.90;100.00;99743.53;5091005;28;20055;-71
2023/03/09 10:26:14;;;;;;;41.28;22.60;;;;;;;2.95;100.00;99743.84;5091407;28;20103;-71
2023/03/09 10:28:44;;;;;;;41.85;20.48;;;;;;;2.98;100.00;99747.94;5090901;28;20031;-71
2023/03/09 10:31:39;;;;;;;40.47;20.85;;;;;;;2.97;100.00;99760.31;5091266;28;20475;-71
2023/03/09 10:34:13;;;;;;;37.00;18.15;;;;;;;2.98;100.00;99750.56;5074885;28;20400;-71
2023/03/09 10:36:47;;;;;;;40.28;19.50;;;;;;;2.98;100.00;99743.50;5091249;28;20066;-71
2023/03/09 10:39:16;;;;;;;39.08;21.13;;;;;;;2.96;100.00;99744.66;5091040;28;20024;-71
2023/03/09 10:41:41;;;;;;;44.13;21.63;;;;;;;2.97;100.00;99725.25;5090933;28;20379;-71
2023/03/09 10:44:07;;;;;;;34.95;18.42;;;;;;;2.96;100.00;99734.97;5090952;28;20043;-71
2023/03/09 10:46:57;;;;;;;36.75;17.67;;;;;;;2.93;100.00;99730.03;5090921;28;20036;-71
2023/03/09 10:49:23;;;;;;;37.97;18.60;;;;;;;2.95;100.00;99745.66;5090828;28;20023;-71
2023/03/09 10:52:00;;;;;;;39.85;20.63;;;;;;;3.06;100.00;99745.25;5090769;28;20476;-71
2023/03/09 10:54:39;;;;;;;38.05;16.02;;;;;;;3.05;100.00;99733.91;5090944;28;20020;-71
2023/03/09 10:57:25;;;;;;;34.30;16.48;;;;;;;3.21;100.00;99740.06;5090786;28;20016;-71
2023/03/09 11:00:05;;;;;;;36.78;18.92;;;;;;;3.23;100.00;99743.34;5090644;28;20038;-71
2023/03/09 11:02:35;;;;;;;40.05;17.90;;;;;;;3.40;100.00;99749.28;5090755;28;20376;-71
2023/03/09 11:05:24;;;;;;;40.95;19.77;;;;;;;3.59;100.00;99755.88;5090566;28;20060;-72
2023/03/09 11:07:57;;;;;;;40.55;18.83;;;;;;;3.65;100.00;99757.81;5090610;28;20040;-71
2023/03/09 11:10:32;;;;;;;37.97;19.77;;;;;;;3.64;100.00;99748.25;5090477;28;20031;-71
2023/03/09 11:12:58;;;;;;;35.05;16.60;;;;;;;3.57;100.00;99734.16;5090777;28;20032;-71